White Bear Township, Minnesota
Current Conditions -  °F | °C
As of 5:11 PM on Tuesday 25 Nov 2014 (Local Time) from K21D Reporting Station
Overcast Overcast  
Wind Chill: 17°   Ceiling: 6000
Heat Index: 23°   Visibility: 10mi
Dew Point: 18°   Wind: 5mph
Humidity: 80%   Direction: 160°SSE
Pressure: 30.04"   Gusts: NA
Location:  45.0958°N, 93.0043°W
Report Text: K21D 252311Z AUTO 16004KT 10SM SCT047 OVC060 M05/M08 A3004 RMK AO2
Loading
Personal Weather Stations






























Interactive Weather Map New forecast layout! Learn more

10-Day Weather Forecast

Advertisements
Track Severe Weather on mobile